x

La Perouse Bank (46206) Wave Buoy

5:00 - Fri 29th Aug 2014 All times are PDT. -7 hours from GMT.

  • Sig Wave height 3.0ft
  • Peak Period 14s
  • Wind
    16mph, 18mph gusts
  • Sea Temp 60°f
  • Ar Temp 56°f
  • Sea Pressure 1014.9mb
  • La Perouse Bank
  • La Perouse Bank

More Historic Weather Station data

Upgrade to MSW Pro to gain access to the past 30 days of data for over 8000 Wavebouys and Weather Stations around the globe.

Join Pro

Comparision Forecast

View Surf forecast
   
Sex 08/29 5:00 3ft 14s 16 18 mph 1014.9mb 60f 56f
4:00 3ft 15s 13 16 mph 1015mb 59f 56f
3:00 3ft 15s 16 18 mph 1015mb 60f 56f
2:00 3ft 15s 16 18 mph 1015.3mb 60f 56f
1:00 3ft 14s 13 16 mph 1015.4mb 60f 56f
12:00 3.5ft 15s 9 11 mph 1015.5mb 60f 56f
11:00 3ft 14s 16 20 mph 1015mb 60f 56f
10:00 3ft 15s 16 20 mph 1015mb 60f 59f
9:00 3ft 10s 11 13 mph 1015mb 60f 58f
8:00 3ft 10s 7
mph
1015.1mb 60f 58f
7:00 2.5ft 10s 4
mph
1014.9mb 60f 58f
6:00 3.5ft 10s 4
mph
1015mb 60f 59f
5:00 3ft 16s 2
mph
1015.3mb 60f 59f
4:00 3ft 10s 4
mph
1015.6mb 60f 59f
3:00 3.5ft 10s 4 7 mph 1015.8mb 60f 59f
2:00 3ft 15s 4 7 mph 1016.4mb 60f 59f
1:00 3.5ft 11s 4 7 mph 1016.6mb 60f 59f
12:00 3.5ft 10s 7 9 mph 1017.2mb 60f 60f
Qui 08/28 11:00 3.5ft 10s 9 11 mph 1017.6mb 60f 60f
10:00 4ft 9s 7 9 mph 1017.8mb 60f 60f
9:00 4ft 9s 9
mph
1018.4mb 60f 60f
8:00 3.5ft 10s 9 11 mph 1018.7mb 60f 60f
7:00 3.5ft 10s 9
mph
1018.8mb 60f 60f
6:00 3.5ft 10s 11 13 mph 1019.3mb 60f 60f
5:00 3.5ft 10s 13 16 mph 1019.5mb 60f 60f
4:00 3.5ft 10s 9 11 mph 1019.6mb 58f 60f
3:00 3.5ft 10s 11 16 mph 1020mb 58f 60f
2:00 3.5ft 10s 7 9 mph 1019.8mb 59f 59f
1:00 4ft 16s 4 7 mph 1019.8mb 58f 59f
12:00 4ft 10s 7 9 mph 1020.1mb 59f 59f
11:00 3.5ft 10s 7
mph
1020mb 59f 59f
10:00 3ft 11s 4 7 mph 1019.7mb 59f 59f
9:00 3.5ft 10s 9
mph
1019.4mb 59f 59f
8:00 3.5ft 10s 7 9 mph 1019.2mb 59f 60f
7:00 3ft 10s 7
mph
1019.1mb 59f 59f
6:00 2.5ft 11s 7 9 mph 1018.8mb 59f 59f
5:00 2.5ft 14s 9 11 mph 1018.7mb 59f 58f
4:00 2.5ft 17s 4 7 mph 1018.6mb 58f 59f
3:00 2.5ft 17s 4 7 mph 1018.6mb 59f 60f
2:00 2.5ft 14s 7
mph
1018.4mb 57f 60f
1:00 2.5ft 17s 4
mph
1018.4mb 59f 60f
12:00 2.5ft 14s 7
mph
1018.4mb 59f 60f
Qua 08/27 11:00 2.5ft 16s 9
mph
1018.4mb 59f 60f
10:00 2.5ft 17s 7 9 mph 1018.6mb 59f 60f
9:00 2.5ft 17s 11 13 mph 1018.8mb 59f 60f
8:00 2.5ft 17s 11 13 mph 1018.5mb 59f 60f
7:00 3ft 17s 13
mph
1018.5mb 59f 61f
6:00 3ft 17s 13 16 mph 1018.8mb 59f 60f
5:00 3.5ft 17s 11 13 mph 1018.8mb 57f 60f
4:00 3.5ft 17s 16 20 mph 1018.8mb 56f 60f
3:00 3.5ft 17s 16 18 mph 1018.9mb 56f 60f
2:00 3.5ft 8s 13 16 mph 1019mb 56f 60f
1:00 3.5ft 17s 16 18 mph 1019mb 56f 60f
12:00 3.5ft 14s 13 16 mph 1019.1mb 56f 60f
11:00 3.5ft 5s 13 16 mph 1019.2mb 56f 59f
10:00 3.5ft 5s 13
mph
1019mb 56f 59f
9:00 3.5ft 4s 13 16 mph 1018.6mb 55f 59f
8:00 3.5ft 14s 13
mph
1018.5mb 55f 59f
7:00 4ft 5s 16 18 mph 1018.2mb 56f 58f
6:00 4ft 9s 13 18 mph 1017.8mb 56f 58f
5:00 4ft 9s 13 18 mph 1017.3mb 55f 58f
4:00 4.5ft 15s 16 18 mph 1016.9mb 55f 59f
3:00 4ft 5s 16 18 mph 1016.6mb 55f 59f
2:00 4.5ft 18s 16 20 mph 1016.8mb 56f 59f
1:00 4.5ft 9s 20 22 mph 1016.5mb 58f 59f
12:00 4ft 9s 20 25 mph 1016.7mb 58f 58f
Ter 08/26 11:00 3.5ft 8s 18 22 mph 1016.9mb 58f 59f
10:00 3.5ft 9s 18 20 mph 1017mb 58f 60f
9:00 3.5ft 8s 18 22 mph 1017.1mb 58f 60f
8:00 3.5ft 8s 16 18 mph 1017.1mb 58f 60f
7:00 3.5ft 9s 16 20 mph 1017.2mb 59f 60f
6:00 3ft 14s 16 18 mph 1017.2mb 57f 59f
5:00 3ft 9s 16 20 mph 1017.7mb 57f 59f
4:00 3ft 8s 13 16 mph 1018.3mb 57f 59f
3:00 3ft 8s 13 18 mph 1018.7mb 58f 58f
2:00 3ft 7s 9 11 mph 1018.8mb 57f 58f
1:00 3.5ft 8s 7 9 mph 1019mb 57f 58f
12:00 3.5ft 9s 7 9 mph 1019.2mb 57f 58f
11:00 3.5ft 8s 4
mph
1019.1mb 56f 57f
10:00 3.5ft 15s 4 7 mph 1019mb 56f 57f
9:00 3.5ft 8s 7 9 mph 1018.9mb 55f 56f
8:00 3.5ft 15s 7 9 mph 1018.6mb 55f 57f
7:00 3.5ft 7s 11 13 mph 1018.2mb 55f 57f
6:00 3.5ft 6s 13 16 mph 1017.4mb 55f 57f
5:00 3.5ft 6s 13 16 mph 1017.2mb 55f 58f
4:00 4ft 6s 13 18 mph 1017mb 56f 58f
3:00 4ft 6s 18 20 mph 1016.8mb 56f 58f
2:00 4.5ft 6s 16 20 mph 1016.9mb 56f 58f